Time;durP1;ratioP1;P1;durP2;ratioP2;P2;SDS_P1;SDS_P2;PMS_P1;PMS_P2;Temp;Humidity;BMP_temperature;BMP_pressure;BME280_temperature;BME280_humidity;BME280_pressure;Samples;Min_cycle;Max_cycle;Signal;HPM_P1;HPM_P2
2022/10/09 00:01:08;;;;;;;7.72;2.00;;;14.30;99.90;;;;;;5066907;28;20221;-82
2022/10/09 00:03:35;;;;;;;10.73;2.20;;;14.30;99.90;;;;;;5061909;28;20028;-82
2022/10/09 00:06:02;;;;;;;9.63;1.90;;;14.20;99.90;;;;;;5063608;28;20108;-82
2022/10/09 00:08:28;;;;;;;6.22;1.52;;;14.20;99.90;;;;;;5063536;28;20036;-82
2022/10/09 00:10:54;;;;;;;5.80;1.67;;;14.20;99.90;;;;;;5066509;28;20028;-84
2022/10/09 00:13:20;;;;;;;8.77;1.60;;;14.20;99.90;;;;;;5073443;28;20243;-82
2022/10/09 00:15:46;;;;;;;9.10;1.63;;;14.20;99.90;;;;;;5068677;28;20031;-82
2022/10/09 00:18:14;;;;;;;7.47;1.83;;;14.10;99.90;;;;;;5067689;28;20025;-82
2022/10/09 00:20:42;;;;;;;6.68;1.63;;;14.10;99.90;;;;;;5067139;28;20051;-82
2022/10/09 00:23:09;;;;;;;5.25;1.60;;;14.10;99.90;;;;;;5067284;28;20028;-82
2022/10/09 00:25:35;;;;;;;5.18;1.88;;;14.00;99.90;;;;;;5069210;28;20028;-82
2022/10/09 00:28:02;;;;;;;10.45;1.65;;;14.00;99.90;;;;;;5069823;28;20041;-82
2022/10/09 00:30:28;;;;;;;8.75;2.15;;;14.00;99.90;;;;;;5065757;28;20068;-83
2022/10/09 00:32:53;;;;;;;8.77;2.25;;;14.00;99.90;;;;;;5059028;28;20155;-84
2022/10/09 00:35:20;;;;;;;12.00;2.40;;;14.00;99.90;;;;;;5066581;28;20032;-84
2022/10/09 00:37:47;;;;;;;10.00;1.77;;;13.90;99.90;;;;;;5062251;28;20029;-84
2022/10/09 00:40:13;;;;;;;10.20;2.05;;;13.90;99.90;;;;;;5063731;28;20021;-84
2022/10/09 00:42:39;;;;;;;11.30;1.98;;;13.80;99.90;;;;;;5061623;28;20129;-83
2022/10/09 00:45:05;;;;;;;11.48;2.30;;;13.70;99.90;;;;;;5057341;28;20473;-84
2022/10/09 00:48:06;;;;;;;11.15;1.80;;;13.70;99.90;;;;;;5063490;28;20032;-83
2022/10/09 00:50:51;;;;;;;9.27;1.67;;;13.70;99.90;;;;;;5049176;28;20041;-84
2022/10/09 00:53:20;;;;;;;7.57;2.08;;;13.70;99.90;;;;;;5065744;28;20068;-84
2022/10/09 00:55:46;;;;;;;9.77;2.22;;;13.60;99.90;;;;;;5065580;28;20028;-82
2022/10/09 00:58:12;;;;;;;10.10;1.60;;;13.70;99.90;;;;;;5065818;28;20033;-81
2022/10/09 01:00:38;;;;;;;8.02;2.30;;;13.60;99.90;;;;;;5068303;28;20020;-81
2022/10/09 01:03:04;;;;;;;8.77;1.83;;;13.70;99.90;;;;;;5064160;28;20028;-81
2022/10/09 01:05:42;;;;;;;8.95;1.60;;;13.60;99.90;;;;;;5064357;28;20036;-81
2022/10/09 01:08:25;;;;;;;7.03;1.65;;;13.60;99.90;;;;;;5061230;28;20109;-81
2022/10/09 01:11:02;;;;;;;9.30;2.00;;;13.50;99.90;;;;;;5063223;28;20193;-81
2022/10/09 01:13:34;;;;;;;12.38;2.08;;;13.50;99.90;;;;;;5070095;28;20042;-81
2022/10/09 01:16:14;;;;;;;6.15;1.60;;;13.40;99.90;;;;;;5065648;28;20304;-84
2022/10/09 01:18:50;;;;;;;13.60;2.15;;;13.40;99.90;;;;;;5062956;28;20029;-84
2022/10/09 01:21:40;;;;;;;9.90;2.63;;;13.40;99.90;;;;;;5075583;28;20020;-84
2022/10/09 01:24:14;;;;;;;9.23;1.85;;;13.30;99.90;;;;;;5064877;28;20048;-84
2022/10/09 01:26:59;;;;;;;7.93;1.60;;;13.30;99.90;;;;;;5064805;28;20021;-84
2022/10/09 01:29:32;;;;;;;13.65;2.30;;;13.20;99.90;;;;;;5062223;28;20016;-81
2022/10/09 01:31:59;;;;;;;11.32;2.53;;;13.20;99.90;;;;;;5072930;28;20037;-81
2022/10/09 01:34:26;;;;;;;8.05;1.75;;;13.10;99.90;;;;;;5068374;28;20429;-81
2022/10/09 01:36:53;;;;;;;11.20;2.08;;;13.00;99.90;;;;;;5066186;28;20028;-81
2022/10/09 01:39:21;;;;;;;9.10;1.80;;;13.00;99.90;;;;;;5062992;28;20028;-81
2022/10/09 01:41:49;;;;;;;8.02;2.22;;;12.90;99.90;;;;;;5066980;28;20031;-81
2022/10/09 01:44:26;;;;;;;7.88;1.70;;;12.90;99.90;;;;;;5051824;28;20104;-81
2022/10/09 01:46:52;;;;;;;7.95;2.15;;;12.80;99.90;;;;;;5067537;28;20025;-81
2022/10/09 01:49:50;;;;;;;10.38;2.47;;;12.80;99.90;;;;;;5066171;28;20390;-82
2022/10/09 01:52:46;;;;;;;8.13;1.70;;;12.80;99.90;;;;;;5024220;28;20406;-81
2022/10/09 01:55:26;;;;;;;6.60;1.70;;;12.70;99.90;;;;;;5060531;28;20033;-81
2022/10/09 01:58:00;;;;;;;7.40;1.75;;;12.70;99.90;;;;;;5072365;28;20096;-81
2022/10/09 02:00:29;;;;;;;11.90;2.63;;;12.60;99.90;;;;;;5061230;28;20028;-81
2022/10/09 02:02:56;;;;;;;13.18;1.90;;;12.60;99.90;;;;;;5058896;28;20031;-81
2022/10/09 02:05:26;;;;;;;11.32;2.55;;;12.60;99.90;;;;;;5060353;28;20036;-81
2022/10/09 02:07:54;;;;;;;10.98;1.90;;;12.60;99.90;;;;;;5057688;28;20017;-81
2022/10/09 02:10:20;;;;;;;8.80;2.10;;;12.60;99.90;;;;;;5058476;28;20029;-81
2022/10/09 02:12:53;;;;;;;8.60;1.80;;;12.60;99.90;;;;;;5067928;28;20021;-81
2022/10/09 02:15:20;;;;;;;5.78;1.77;;;12.50;99.90;;;;;;5062130;28;20044;-81
2022/10/09 02:17:48;;;;;;;8.90;1.77;;;12.50;99.90;;;;;;5068029;28;20021;-81
2022/10/09 02:20:28;;;;;;;13.77;2.17;;;12.50;99.90;;;;;;5070562;28;20056;-82
2022/10/09 02:22:55;;;;;;;10.23;2.20;;;12.50;99.90;;;;;;5075063;28;20025;-81
2022/10/09 02:25:21;;;;;;;9.93;1.83;;;12.40;99.90;;;;;;5063481;28;20020;-82
2022/10/09 02:27:47;;;;;;;10.50;2.00;;;12.40;99.90;;;;;;5059761;28;20374;-81
2022/10/09 02:30:15;;;;;;;6.85;1.92;;;12.40;99.90;;;;;;5063919;28;20182;-81
2022/10/09 02:32:40;;;;;;;9.35;2.00;;;12.40;99.90;;;;;;5062256;28;20129;-81
2022/10/09 02:35:07;;;;;;;9.95;2.35;;;12.40;99.90;;;;;;5064672;28;20040;-81
2022/10/09 02:37:32;;;;;;;9.68;2.83;;;12.40;99.90;;;;;;5059039;28;20058;-81
2022/10/09 02:39:58;;;;;;;9.93;2.40;;;12.40;99.90;;;;;;5056771;28;20033;-81
2022/10/09 02:42:24;;;;;;;10.07;1.95;;;12.40;99.90;;;;;;5061388;28;20059;-81
2022/10/09 02:44:51;;;;;;;7.68;1.98;;;12.40;99.90;;;;;;5052613;28;20021;-81
2022/10/09 02:47:17;;;;;;;5.97;1.60;;;12.40;99.90;;;;;;5064760;28;20074;-81
2022/10/09 02:49:43;;;;;;;10.90;2.28;;;12.40;99.90;;;;;;5072379;28;20025;-81
2022/10/09 02:52:08;;;;;;;10.55;1.55;;;12.40;99.90;;;;;;5066928;28;20012;-81
2022/10/09 02:54:34;;;;;;;11.45;2.10;;;12.40;99.90;;;;;;5065327;28;20060;-81
2022/10/09 02:57:00;;;;;;;9.57;1.85;;;12.50;99.90;;;;;;5064364;28;20534;-81
2022/10/09 02:59:26;;;;;;;11.35;2.20;;;12.50;99.90;;;;;;5063282;28;20415;-81
2022/10/09 03:01:51;;;;;;;11.38;2.92;;;12.40;99.90;;;;;;5062875;28;20016;-81
2022/10/09 03:04:17;;;;;;;12.90;2.10;;;12.40;99.90;;;;;;5058129;28;20036;-81
2022/10/09 03:06:43;;;;;;;8.55;1.80;;;12.40;99.90;;;;;;5057713;28;20085;-84
2022/10/09 03:09:08;;;;;;;8.02;2.20;;;12.40;99.90;;;;;;5056244;28;20037;-84
2022/10/09 03:11:34;;;;;;;7.72;1.70;;;12.40;99.90;;;;;;5058771;28;20071;-84
2022/10/09 03:13:59;;;;;;;12.02;1.98;;;12.40;99.90;;;;;;5064153;28;20043;-84
2022/10/09 03:16:26;;;;;;;7.97;2.10;;;12.40;99.90;;;;;;5067714;28;20032;-84
2022/10/09 03:18:52;;;;;;;10.45;1.92;;;12.40;99.90;;;;;;5064657;28;20294;-84
2022/10/09 03:21:20;;;;;;;7.55;1.80;;;12.40;99.90;;;;;;5066630;28;20015;-84
2022/10/09 03:23:46;;;;;;;10.10;2.00;;;12.40;99.90;;;;;;5073850;28;20029;-84
2022/10/09 03:26:14;;;;;;;5.80;2.15;;;12.40;99.90;;;;;;5065268;28;20036;-84
2022/10/09 03:28:43;;;;;;;9.52;2.00;;;12.30;99.90;;;;;;5065746;28;20021;-84
2022/10/09 03:31:09;;;;;;;6.68;1.65;;;12.30;99.90;;;;;;5061766;28;20271;-83
2022/10/09 03:33:36;;;;;;;7.47;1.60;;;12.30;99.90;;;;;;5070926;28;20068;-84
2022/10/09 03:36:02;;;;;;;9.38;1.85;;;12.40;99.90;;;;;;5060390;28;20052;-84
2022/10/09 03:38:28;;;;;;;6.85;1.98;;;12.40;99.90;;;;;;5060178;28;20447;-84
2022/10/09 03:40:54;;;;;;;9.45;2.33;;;12.40;99.90;;;;;;5057644;28;20103;-84
2022/10/09 03:43:20;;;;;;;11.13;1.92;;;12.40;99.90;;;;;;5061656;28;20028;-81
2022/10/09 03:45:45;;;;;;;11.18;2.30;;;12.40;99.90;;;;;;5069308;28;20119;-81
2022/10/09 03:48:12;;;;;;;8.13;1.90;;;12.40;99.90;;;;;;5072889;28;20071;-81
2022/10/09 03:50:39;;;;;;;8.32;2.17;;;12.30;99.90;;;;;;5073313;28;20032;-82
2022/10/09 03:53:06;;;;;;;8.77;2.00;;;12.30;99.90;;;;;;5063348;28;20686;-84
2022/10/09 03:55:32;;;;;;;10.68;2.15;;;12.30;99.90;;;;;;5071416;28;20024;-84
2022/10/09 03:57:57;;;;;;;10.25;2.30;;;12.30;99.90;;;;;;5072569;28;20029;-84
2022/10/09 04:00:24;;;;;;;8.75;1.60;;;12.30;99.90;;;;;;5069444;28;20017;-84
2022/10/09 04:02:50;;;;;;;10.13;2.20;;;12.20;99.90;;;;;;5064425;28;20017;-84
2022/10/09 04:05:16;;;;;;;7.65;2.10;;;12.10;99.90;;;;;;5073058;28;20352;-84
2022/10/09 04:07:42;;;;;;;12.60;2.22;;;12.20;99.90;;;;;;5063748;28;20028;-84
2022/10/09 04:10:08;;;;;;;7.15;1.85;;;12.10;99.90;;;;;;5066392;28;20043;-84
2022/10/09 04:12:33;;;;;;;11.93;1.90;;;12.10;99.90;;;;;;5072894;28;20012;-84
2022/10/09 04:14:59;;;;;;;11.65;2.67;;;12.10;99.90;;;;;;5069513;28;20037;-84
2022/10/09 04:17:25;;;;;;;6.63;1.70;;;12.10;99.90;;;;;;5065640;28;20095;-84
2022/10/09 04:19:51;;;;;;;9.57;2.75;;;12.10;99.90;;;;;;5065879;28;20071;-84
2022/10/09 04:22:17;;;;;;;7.18;2.03;;;12.10;99.90;;;;;;5070795;28;20276;-84
2022/10/09 04:24:42;;;;;;;7.47;1.77;;;12.10;99.90;;;;;;5066747;28;20066;-84
2022/10/09 04:27:08;;;;;;;10.70;2.05;;;12.10;99.90;;;;;;5068618;28;20063;-84
2022/10/09 04:29:34;;;;;;;8.73;2.03;;;12.10;99.90;;;;;;5064950;28;20367;-84
2022/10/09 04:31:59;;;;;;;8.48;2.20;;;12.00;99.90;;;;;;5065152;28;20021;-84
2022/10/09 04:34:25;;;;;;;10.40;2.17;;;12.00;99.90;;;;;;5064722;28;20392;-84
2022/10/09 04:36:51;;;;;;;11.10;2.00;;;12.00;99.90;;;;;;5063964;28;20028;-84
2022/10/09 04:39:16;;;;;;;8.50;2.15;;;12.00;99.90;;;;;;5063118;28;20309;-84
2022/10/09 04:41:42;;;;;;;10.93;2.20;;;11.90;99.90;;;;;;5064309;28;20338;-84
2022/10/09 04:44:07;;;;;;;12.55;2.80;;;11.90;99.90;;;;;;5058091;28;20017;-84
2022/10/09 04:46:33;;;;;;;9.23;1.63;;;11.90;99.90;;;;;;5074783;28;20035;-84
2022/10/09 04:48:59;;;;;;;9.98;1.90;;;11.90;99.90;;;;;;5069878;28;20027;-84
2022/10/09 04:51:24;;;;;;;11.90;2.05;;;11.90;99.90;;;;;;5068606;28;20058;-84
2022/10/09 04:53:50;;;;;;;8.25;1.98;;;11.80;99.90;;;;;;5064893;28;20124;-84
2022/10/09 04:56:18;;;;;;;9.38;2.05;;;11.80;99.90;;;;;;5063613;28;20032;-84
2022/10/09 04:58:46;;;;;;;10.85;2.13;;;11.80;99.90;;;;;;5062438;28;20032;-81
2022/10/09 05:01:23;;;;;;;6.47;1.92;;;11.80;99.90;;;;;;5060247;28;20435;-84
2022/10/09 05:03:49;;;;;;;12.20;1.92;;;11.80;99.90;;;;;;5061721;28;20373;-82
2022/10/09 05:06:18;;;;;;;9.27;1.77;;;11.80;99.90;;;;;;5060045;28;20041;-81
2022/10/09 05:08:44;;;;;;;4.20;1.70;;;11.70;99.90;;;;;;5062317;28;20028;-82
2022/10/09 05:11:12;;;;;;;10.55;2.45;;;11.60;99.90;;;;;;5066065;28;20051;-82
2022/10/09 05:13:41;;;;;;;15.02;2.33;;;11.60;99.90;;;;;;5073954;28;20040;-82
2022/10/09 05:16:09;;;;;;;9.65;2.00;;;11.70;99.90;;;;;;5073796;28;20048;-81
2022/10/09 05:18:35;;;;;;;7.28;2.17;;;11.60;99.90;;;;;;5068960;28;20029;-82
2022/10/09 05:21:04;;;;;;;8.23;1.90;;;11.60;99.90;;;;;;5070264;28;20209;-82
2022/10/09 05:23:31;;;;;;;9.38;1.83;;;11.60;99.90;;;;;;5071661;28;20024;-82
2022/10/09 05:25:59;;;;;;;7.85;2.03;;;11.60;99.90;;;;;;5058439;28;20163;-82
2022/10/09 05:28:25;;;;;;;12.10;2.60;;;11.60;99.90;;;;;;5066593;28;20017;-82
2022/10/09 05:30:51;;;;;;;7.53;1.75;;;11.60;99.90;;;;;;5061721;28;20036;-82
2022/10/09 05:33:17;;;;;;;10.57;2.05;;;11.60;99.90;;;;;;5058850;28;20078;-82
2022/10/09 05:35:52;;;;;;;11.68;1.88;;;11.60;99.90;;;;;;5054591;28;20021;-82
2022/10/09 05:38:18;;;;;;;9.23;2.47;;;11.60;99.90;;;;;;5065199;28;20082;-84
2022/10/09 05:40:55;;;;;;;9.18;2.20;;;11.60;99.90;;;;;;5056224;28;20489;-84
2022/10/09 05:43:29;;;;;;;9.93;2.00;;;11.60;99.90;;;;;;5058128;28;20067;-82
2022/10/09 05:46:03;;;;;;;11.18;1.90;;;11.60;99.90;;;;;;5056843;28;20043;-82
2022/10/09 05:48:28;;;;;;;7.57;1.90;;;11.60;99.90;;;;;;5061815;28;20071;-83
2022/10/09 05:51:04;;;;;;;10.98;1.90;;;11.60;99.90;;;;;;5066492;28;20025;-82
2022/10/09 05:53:29;;;;;;;6.82;1.80;;;11.60;99.90;;;;;;5066524;28;20133;-82
2022/10/09 05:55:55;;;;;;;8.45;1.80;;;11.50;99.90;;;;;;5060147;28;20080;-81
2022/10/09 05:58:20;;;;;;;8.85;2.08;;;11.50;99.90;;;;;;5057755;28;20415;-82
2022/10/09 06:00:46;;;;;;;9.68;2.40;;;11.50;99.90;;;;;;5055903;28;20025;-84
2022/10/09 06:03:12;;;;;;;9.20;2.65;;;11.50;99.90;;;;;;5052791;28;20105;-82
2022/10/09 06:05:37;;;;;;;6.43;1.75;;;11.50;99.90;;;;;;5053480;28;20445;-82
2022/10/09 06:08:03;;;;;;;9.05;2.00;;;11.50;99.90;;;;;;5051349;28;20067;-82
2022/10/09 06:10:28;;;;;;;10.05;3.20;;;11.60;99.90;;;;;;5052703;28;20417;-81
2022/10/09 06:12:55;;;;;;;14.25;2.20;;;11.60;99.90;;;;;;5061480;28;20074;-82
2022/10/09 06:15:21;;;;;;;6.30;2.03;;;11.60;99.90;;;;;;5056321;28;20599;-82
2022/10/09 06:17:46;;;;;;;12.23;2.17;;;11.60;99.90;;;;;;5060298;28;20028;-82
2022/10/09 06:20:12;;;;;;;12.07;2.35;;;11.60;99.90;;;;;;5054670;28;20025;-82
2022/10/09 06:22:37;;;;;;;8.43;2.00;;;11.60;99.90;;;;;;5067738;28;20028;-81
2022/10/09 06:25:03;;;;;;;12.73;2.28;;;11.60;99.90;;;;;;5062226;28;20035;-83
2022/10/09 06:27:29;;;;;;;5.97;1.50;;;11.60;99.90;;;;;;5055474;28;20025;-81
2022/10/09 06:29:55;;;;;;;10.15;2.33;;;11.60;99.90;;;;;;5060580;28;20023;-81
2022/10/09 06:32:20;;;;;;;11.93;2.10;;;11.60;99.90;;;;;;5054279;28;20103;-82
2022/10/09 06:34:46;;;;;;;12.52;1.92;;;11.60;99.90;;;;;;5055337;28;20029;-82
2022/10/09 06:37:11;;;;;;;8.60;2.60;;;11.60;99.90;;;;;;5053655;28;20029;-82
2022/10/09 06:39:37;;;;;;;9.90;2.22;;;11.60;99.90;;;;;;5052294;28;20383;-82
2022/10/09 06:42:04;;;;;;;7.75;1.88;;;11.60;99.90;;;;;;5052309;28;20367;-82
2022/10/09 06:44:30;;;;;;;8.88;2.50;;;11.60;99.90;;;;;;5050484;28;20133;-82
2022/10/09 06:46:55;;;;;;;10.00;2.13;;;11.60;99.90;;;;;;5058294;28;20668;-82
2022/10/09 06:49:21;;;;;;;6.25;1.88;;;11.70;99.90;;;;;;5064933;28;20048;-82
2022/10/09 06:51:46;;;;;;;7.45;1.83;;;11.60;99.90;;;;;;5058723;28;20100;-82
2022/10/09 06:54:15;;;;;;;11.02;2.45;;;11.70;99.90;;;;;;5062417;28;20393;-82
2022/10/09 06:56:40;;;;;;;10.88;2.28;;;11.80;99.90;;;;;;5057542;28;20469;-82
2022/10/09 06:59:07;;;;;;;9.90;2.22;;;11.80;99.90;;;;;;5056434;28;20036;-81
2022/10/09 07:01:33;;;;;;;10.07;2.30;;;11.90;99.90;;;;;;5063113;28;20029;-86
2022/10/09 07:04:01;;;;;;;7.57;1.98;;;11.90;99.90;;;;;;5057508;28;20031;-89
2022/10/09 07:06:29;;;;;;;10.52;2.35;;;12.00;99.90;;;;;;5065113;28;20032;-90
2022/10/09 07:09:01;;;;;;;8.02;2.30;;;12.00;99.90;;;;;;5074423;28;20564;-88
2022/10/09 07:11:35;;;;;;;10.82;1.85;;;12.10;99.90;;;;;;5069096;28;20032;-82
2022/10/09 07:14:03;;;;;;;7.85;2.05;;;12.10;99.90;;;;;;5074873;28;20518;-81
2022/10/09 07:16:35;;;;;;;7.57;2.20;;;12.20;99.90;;;;;;5065498;28;20048;-80
2022/10/09 07:19:02;;;;;;;6.88;2.03;;;12.20;99.90;;;;;;5061421;28;20021;-81
2022/10/09 07:21:28;;;;;;;11.00;2.10;;;12.30;99.90;;;;;;5063394;28;20070;-81
2022/10/09 07:23:54;;;;;;;9.27;2.00;;;12.30;99.90;;;;;;5069586;28;20031;-81
2022/10/09 07:26:23;;;;;;;4.95;1.70;;;12.40;99.90;;;;;;5062415;28;20021;-81
2022/10/09 07:28:49;;;;;;;8.15;2.00;;;12.50;99.90;;;;;;5060473;28;20052;-80
2022/10/09 07:31:16;;;;;;;6.78;1.95;;;12.60;99.90;;;;;;5058573;28;20537;-81
2022/10/09 07:33:41;;;;;;;5.70;1.70;;;12.70;99.90;;;;;;5059833;28;20055;-81
2022/10/09 07:36:08;;;;;;;9.57;2.38;;;12.70;99.90;;;;;;5061013;28;20112;-81
2022/10/09 07:38:34;;;;;;;7.15;2.28;;;12.80;99.90;;;;;;5060739;28;20088;-85
2022/10/09 07:41:08;;;;;;;8.43;1.85;;;12.80;99.90;;;;;;5062952;28;20301;-84
2022/10/09 07:43:35;;;;;;;;;;;12.90;99.90;;;;;;5059479;28;20024;-83
2022/10/09 07:46:03;;;;;;;7.82;2.03;;;12.90;99.90;;;;;;5062141;28;19905;-83
2022/10/09 07:48:29;;;;;;;11.02;2.20;;;13.00;99.90;;;;;;5066520;28;20420;-78
2022/10/09 07:50:55;;;;;;;7.43;2.15;;;13.10;99.90;;;;;;5064096;28;20017;-78
2022/10/09 07:53:21;;;;;;;8.52;1.60;;;13.20;99.90;;;;;;5063947;28;20064;-77
2022/10/09 07:55:48;;;;;;;4.60;2.00;;;13.30;99.90;;;;;;5061222;28;20105;-77
2022/10/09 07:58:15;;;;;;;11.95;2.67;;;13.40;99.90;;;;;;5057765;28;20602;-77
2022/10/09 08:00:41;;;;;;;7.55;1.92;;;13.50;99.90;;;;;;5058308;28;20478;-78
2022/10/09 08:03:07;;;;;;;7.68;1.85;;;13.60;99.90;;;;;;5055559;28;20028;-78
2022/10/09 08:05:33;;;;;;;7.82;1.98;;;13.70;99.90;;;;;;5057536;28;20024;-78
2022/10/09 08:07:58;;;;;;;6.50;2.00;;;13.80;99.90;;;;;;5053857;28;20044;-78
2022/10/09 08:10:24;;;;;;;9.57;2.38;;;13.90;99.90;;;;;;5054512;28;20424;-78
2022/10/09 08:12:50;;;;;;;6.65;1.90;;;14.00;99.90;;;;;;5064243;28;20069;-78
2022/10/09 08:15:15;;;;;;;6.53;2.15;;;14.00;99.90;;;;;;5062929;28;20048;-80
2022/10/09 08:17:41;;;;;;;8.50;2.30;;;14.10;99.90;;;;;;5064873;28;20016;-80
2022/10/09 08:20:07;;;;;;;8.98;2.30;;;14.20;99.90;;;;;;5066168;28;20229;-79
2022/10/09 08:22:33;;;;;;;7.38;1.75;;;14.20;99.90;;;;;;5079553;28;20415;-80
2022/10/09 08:24:59;;;;;;;6.88;1.95;;;14.30;99.90;;;;;;5073402;28;20043;-80
2022/10/09 08:27:24;;;;;;;7.18;2.03;;;14.40;99.90;;;;;;5068220;28;20025;-80
2022/10/09 08:29:50;;;;;;;4.82;1.60;;;14.60;99.90;;;;;;5070982;28;20208;-80
2022/10/09 08:32:16;;;;;;;5.05;1.70;;;14.70;99.90;;;;;;5066767;28;20064;-81
2022/10/09 08:34:42;;;;;;;9.35;2.35;;;14.80;99.90;;;;;;5066604;28;20040;-80
2022/10/09 08:37:07;;;;;;;6.72;1.90;;;14.90;99.90;;;;;;5067082;28;20035;-80
2022/10/09 08:39:33;;;;;;;7.13;1.90;;;14.80;99.90;;;;;;5064005;28;20347;-82
2022/10/09 08:42:02;;;;;;;7.18;2.20;;;14.90;99.90;;;;;;5056480;28;20092;-83
2022/10/09 08:44:37;;;;;;;11.70;1.92;;;15.00;99.90;;;;;;5058518;28;20096;-81
2022/10/09 08:47:09;;;;;;;7.68;1.98;;;15.20;99.90;;;;;;5070092;28;20024;-81
2022/10/09 08:49:48;;;;;;;9.32;2.45;;;15.30;99.90;;;;;;5067715;28;20328;-81
2022/10/09 08:52:38;;;;;;;11.07;1.83;;;15.30;99.90;;;;;;5071125;28;20213;-80
2022/10/09 08:55:27;;;;;;;6.93;1.60;;;15.50;99.90;;;;;;5065213;28;20036;-80
2022/10/09 08:57:56;;;;;;;9.93;2.20;;;15.50;99.90;;;;;;5062368;28;20217;-81
2022/10/09 09:00:30;;;;;;;6.88;1.98;;;15.50;99.90;;;;;;5065814;28;20244;-82
2022/10/09 09:03:04;;;;;;;;;;;15.60;99.90;;;;;;5065279;28;20041;-80
2022/10/09 09:05:59;;;;;;;4.80;2.10;;;15.70;99.90;;;;;;5064601;28;19900;-78
2022/10/09 09:08:43;;;;;;;4.25;1.60;;;15.80;99.90;;;;;;5054414;28;20245;-78
2022/10/09 09:11:33;;;;;;;9.10;1.98;;;16.00;99.90;;;;;;5067253;28;20035;-80
2022/10/09 09:14:13;;;;;;;8.35;1.85;;;16.10;99.90;;;;;;5070991;28;20344;-80
2022/10/09 09:17:06;;;;;;;5.75;1.60;;;16.20;99.90;;;;;;5068810;28;20039;-79
2022/10/09 09:19:55;;;;;;;8.38;2.00;;;16.30;99.90;;;;;;5076388;28;20200;-78
2022/10/09 09:22:23;;;;;;;8.52;2.05;;;16.40;99.90;;;;;;5077837;28;20008;-78
2022/10/09 09:24:53;;;;;;;11.52;2.50;;;16.50;99.90;;;;;;5074211;28;20030;-78
2022/10/09 09:27:30;;;;;;;28.33;2.80;;;16.50;99.90;;;;;;5067795;28;20335;-78
2022/10/09 09:30:19;;;;;;;7.70;1.80;;;16.60;99.90;;;;;;5070366;28;20097;-78
2022/10/09 09:32:55;;;;;;;9.27;1.90;;;16.70;99.90;;;;;;5077273;28;20052;-78
2022/10/09 09:35:33;;;;;;;5.05;2.00;;;16.80;99.90;;;;;;5074268;28;20056;-78
2022/10/09 09:37:59;;;;;;;9.07;1.80;;;17.00;99.90;;;;;;5064829;28;20020;-78
2022/10/09 09:40:29;;;;;;;6.78;2.10;;;17.10;99.90;;;;;;5065398;28;20322;-78
2022/10/09 09:42:55;;;;;;;4.78;2.28;;;17.20;99.90;;;;;;5063042;28;20084;-79
2022/10/09 09:45:25;;;;;;;8.05;1.95;;;17.30;99.90;;;;;;5062882;28;20020;-79
2022/10/09 09:47:56;;;;;;;7.93;1.95;;;17.40;99.90;;;;;;5069430;28;20025;-78
2022/10/09 09:50:32;;;;;;;6.25;1.85;;;17.50;99.90;;;;;;5071547;28;20210;-78
2022/10/09 09:53:03;;;;;;;5.78;2.28;;;17.60;99.90;;;;;;5068138;28;20317;-78
2022/10/09 09:55:31;;;;;;;9.32;2.38;;;17.60;99.90;;;;;;5068150;28;20029;-80
2022/10/09 09:58:04;;;;;;;5.70;2.10;;;17.70;99.90;;;;;;5057323;28;20021;-78
2022/10/09 10:00:30;;;;;;;13.77;2.35;;;17.80;99.90;;;;;;5063979;28;20085;-84
2022/10/09 10:03:11;;;;;;;8.00;2.15;;;17.90;99.90;;;;;;5060900;28;20111;-84
2022/10/09 10:05:37;;;;;;;7.82;2.15;;;17.90;99.90;;;;;;5063705;28;20207;-83
2022/10/09 10:08:33;;;;;;;9.32;2.38;;;18.00;99.90;;;;;;5067774;28;20351;-83
2022/10/09 10:11:02;;;;;;;9.95;2.65;;;18.20;99.90;;;;;;5063810;28;20045;-85
2022/10/09 10:13:37;;;;;;;8.02;2.47;;;18.20;99.90;;;;;;5069962;28;20100;-85
2022/10/09 10:16:04;;;;;;;10.75;2.58;;;18.40;99.90;;;;;;5068244;28;20024;-86
2022/10/09 10:18:37;;;;;;;11.30;2.58;;;18.40;99.90;;;;;;5064112;28;20044;-84
2022/10/09 10:21:10;;;;;;;10.00;2.42;;;18.60;99.90;;;;;;5071234;28;20093;-85
2022/10/09 10:23:54;;;;;;;8.67;2.10;;;18.70;99.90;;;;;;5075550;28;21697;-82
2022/10/09 10:26:42;;;;;;;5.53;1.88;;;18.90;99.90;;;;;;5068929;28;20596;-83
2022/10/09 10:29:18;;;;;;;6.47;2.00;;;19.00;99.90;;;;;;5068055;28;20013;-83
2022/10/09 10:32:06;;;;;;;7.93;1.90;;;19.10;99.90;;;;;;5064551;28;20059;-84
2022/10/09 10:34:51;;;;;;;8.75;2.20;;;19.10;99.90;;;;;;5066484;28;20032;-84
2022/10/09 10:37:50;;;;;;;7.43;1.95;;;19.20;99.90;;;;;;5065715;28;20040;-84
2022/10/09 10:40:19;;;;;;;5.22;1.85;;;19.30;99.90;;;;;;5058601;28;20028;-86
2022/10/09 10:43:00;;;;;;;8.63;2.22;;;19.50;99.90;;;;;;5056944;28;20033;-86
2022/10/09 10:45:47;;;;;;;11.63;2.40;;;19.60;99.90;;;;;;5063107;28;20025;-86
2022/10/09 10:48:27;;;;;;;8.75;1.90;;;19.70;99.90;;;;;;5064985;28;20025;-86
2022/10/09 10:51:30;;;;;;;9.57;2.20;;;19.90;99.90;;;;;;5065934;28;20032;-86
2022/10/09 10:54:34;;;;;;;7.55;2.22;;;20.10;99.90;;;;;;5067753;28;20103;-86
2022/10/09 10:57:34;;;;;;;8.50;2.28;;;20.30;99.90;;;;;;5059731;28;20116;-86
2022/10/09 11:00:11;;;;;;;7.15;2.28;;;20.50;99.90;;;;;;5060351;28;20043;-86
2022/10/09 11:03:04;;;;;;;6.63;2.15;;;20.60;99.90;;;;;;5068982;28;20025;-86
2022/10/09 11:06:14;;;;;;;4.28;1.92;;;20.50;99.90;;;;;;5056341;28;20604;-86
2022/10/09 11:09:09;;;;;;;10.48;2.30;;;20.60;99.90;;;;;;5027256;28;20044;-85
2022/10/09 11:11:49;;;;;;;;;;;20.90;99.90;;;;;;5089302;28;20025;-85
2022/10/09 11:14:43;;;;;;;9.00;2.13;;;21.00;99.90;;;;;;5069704;28;19963;-85
2022/10/09 11:17:25;;;;;;;8.95;2.33;;;21.10;99.90;;;;;;5058981;28;20044;-86
2022/10/09 11:20:10;;;;;;;8.63;2.13;;;21.20;99.90;;;;;;5064784;28;20071;-86
2022/10/09 11:22:56;;;;;;;8.40;2.40;;;21.10;99.90;;;;;;5069711;28;20021;-85
2022/10/09 11:25:34;;;;;;;11.27;2.60;;;21.30;99.90;;;;;;5077132;28;20244;-85
2022/10/09 11:28:14;;;;;;;7.47;2.33;;;21.40;99.90;;;;;;5067917;28;20241;-86
2022/10/09 11:31:01;;;;;;;11.23;3.13;;;21.50;99.90;;;;;;5063228;28;20017;-85
2022/10/09 11:33:44;;;;;;;10.85;3.17;;;21.70;99.90;;;;;;5066946;28;20328;-86
2022/10/09 11:36:19;;;;;;;9.48;2.60;;;21.60;99.90;;;;;;5061464;28;20471;-84
2022/10/09 11:38:50;;;;;;;9.07;2.78;;;21.60;99.90;;;;;;5071072;28;20025;-84
2022/10/09 11:41:17;;;;;;;9.25;4.22;;;21.60;99.90;;;;;;5060848;28;20080;-83
2022/10/09 11:43:48;;;;;;;6.72;2.85;;;21.50;99.90;;;;;;5059944;28;20465;-83
2022/10/09 11:46:25;;;;;;;11.13;2.78;;;21.40;99.90;;;;;;5066754;28;20036;-83
2022/10/09 11:49:00;;;;;;;14.60;5.57;;;21.40;99.90;;;;;;5070528;28;20362;-84
2022/10/09 11:51:43;;;;;;;8.55;2.65;;;21.40;99.90;;;;;;5059992;28;20025;-83
2022/10/09 11:54:15;;;;;;;10.85;4.00;;;21.40;99.90;;;;;;5069681;28;20094;-83
2022/10/09 11:56:55;;;;;;;8.63;3.40;;;21.40;99.90;;;;;;5067429;28;20084;-83
2022/10/09 11:59:29;;;;;;;11.60;2.85;;;21.40;99.90;;;;;;5068227;28;20051;-83
2022/10/09 12:01:57;;;;;;;10.40;2.60;;;21.50;99.90;;;;;;5068049;28;20017;-83
2022/10/09 12:04:29;;;;;;;7.13;2.47;;;21.70;99.90;;;;;;5065599;28;20134;-83
2022/10/09 12:06:58;;;;;;;9.38;2.50;;;21.70;99.90;;;;;;5064606;28;20017;-83
2022/10/09 12:09:37;;;;;;;11.20;3.05;;;21.70;99.90;;;;;;5071136;28;20095;-84
2022/10/09 12:12:19;;;;;;;17.92;3.00;;;21.60;99.90;;;;;;5071592;28;20044;-83
2022/10/09 12:14:47;;;;;;;10.95;3.53;;;21.80;99.90;;;;;;5072797;28;20029;-83
2022/10/09 12:17:21;;;;;;;5.57;2.42;;;21.90;99.90;;;;;;5075267;28;20198;-83
2022/10/09 12:19:53;;;;;;;10.43;2.97;;;22.20;99.90;;;;;;5063159;28;20029;-85
2022/10/09 12:22:23;;;;;;;12.23;2.80;;;22.40;99.90;;;;;;5078233;28;20024;-85
2022/10/09 12:24:53;;;;;;;8.23;2.70;;;22.40;99.90;;;;;;5075249;28;20021;-84
2022/10/09 12:27:33;;;;;;;7.70;2.65;;;22.60;99.90;;;;;;5063171;28;20118;-84
2022/10/09 12:30:11;;;;;;;12.05;3.30;;;22.70;99.90;;;;;;5064443;28;20108;-84
2022/10/09 12:32:52;;;;;;;7.03;3.13;;;22.80;99.90;;;;;;5062435;28;20114;-84
2022/10/09 12:35:41;;;;;;;8.32;2.70;;;22.80;99.90;;;;;;5067894;28;20244;-84
2022/10/09 12:38:23;;;;;;;8.68;3.10;;;22.90;99.90;;;;;;5065356;28;20017;-82
2022/10/09 12:40:50;;;;;;;8.80;2.90;;;22.90;99.90;;;;;;5059412;28;20496;-82
2022/10/09 12:43:19;;;;;;;9.93;3.13;;;23.10;99.90;;;;;;5055432;28;20620;-83
2022/10/09 12:45:46;;;;;;;11.20;3.22;;;23.40;99.90;;;;;;5059813;28;20029;-83
2022/10/09 12:48:13;;;;;;;11.48;3.03;;;23.40;99.90;;;;;;5061004;28;20037;-83
2022/10/09 12:50:39;;;;;;;7.82;2.72;;;23.70;99.90;;;;;;5074071;28;20024;-82
2022/10/09 12:53:12;;;;;;;9.70;2.88;;;23.80;99.90;;;;;;5057476;28;20044;-82
2022/10/09 12:55:48;;;;;;;7.13;2.60;;;23.80;99.90;;;;;;5052093;28;20413;-83
2022/10/09 12:58:29;;;;;;;11.10;2.78;;;23.80;99.90;;;;;;5055772;28;20029;-82
2022/10/09 13:01:00;;;;;;;12.30;2.72;;;23.80;99.90;;;;;;5065686;28;20067;-81
2022/10/09 13:03:35;;;;;;;9.80;3.15;;;23.90;99.90;;;;;;5058645;28;20029;-85
2022/10/09 13:06:19;;;;;;;10.77;3.13;;;23.70;99.90;;;;;;5068182;28;20021;-83